sensor_id;sensor_type;location;lat;lon;timestamp;pressure;altitude;pressure_sealevel;temperature;humidity
76126;BME280;65174;48.138;21.002;2023-03-12T00:01:44;98617.06;;;2.37;49.54
76126;BME280;65174;48.138;21.002;2023-03-12T00:04:46;98605.53;;;2.49;48.59
76126;BME280;65174;48.138;21.002;2023-03-12T00:07:48;98622.81;;;2.42;48.31
76126;BME280;65174;48.138;21.002;2023-03-12T00:10:51;98622.03;;;2.22;49.43
76126;BME280;65174;48.138;21.002;2023-03-12T00:13:55;98627.50;;;2.13;49.30
76126;BME280;65174;48.138;21.002;2023-03-12T00:16:58;98627.56;;;2.11;49.85
76126;BME280;65174;48.138;21.002;2023-03-12T00:20:00;98629.84;;;2.17;49.16
76126;BME280;65174;48.138;21.002;2023-03-12T00:23:03;98639.00;;;2.01;49.22
76126;BME280;65174;48.138;21.002;2023-03-12T00:26:08;98651.94;;;1.97;48.61
76126;BME280;65174;48.138;21.002;2023-03-12T00:29:11;98649.19;;;2.01;50.58
76126;BME280;65174;48.138;21.002;2023-03-12T00:32:13;98653.72;;;1.95;50.46
76126;BME280;65174;48.138;21.002;2023-03-12T00:35:16;98657.06;;;1.95;51.19
76126;BME280;65174;48.138;21.002;2023-03-12T00:38:18;98659.56;;;1.97;51.51
76126;BME280;65174;48.138;21.002;2023-03-12T00:41:22;98686.06;;;1.71;56.92
76126;BME280;65174;48.138;21.002;2023-03-12T00:44:24;98676.81;;;1.48;59.38
76126;BME280;65174;48.138;21.002;2023-03-12T00:47:27;98660.56;;;1.31;59.46
76126;BME280;65174;48.138;21.002;2023-03-12T00:50:30;98659.53;;;1.15;59.07
76126;BME280;65174;48.138;21.002;2023-03-12T00:53:32;98661.41;;;1.10;59.71
76126;BME280;65174;48.138;21.002;2023-03-12T00:56:34;98653.91;;;1.07;59.20
76126;BME280;65174;48.138;21.002;2023-03-12T00:59:37;98660.34;;;0.94;59.78
76126;BME280;65174;48.138;21.002;2023-03-12T01:02:41;98670.50;;;0.94;59.23
76126;BME280;65174;48.138;21.002;2023-03-12T01:05:44;98664.78;;;0.65;59.54
76126;BME280;65174;48.138;21.002;2023-03-12T01:08:46;98666.69;;;0.82;58.13
76126;BME280;65174;48.138;21.002;2023-03-12T01:11:49;98663.16;;;0.63;58.51
76126;BME280;65174;48.138;21.002;2023-03-12T01:14:51;98660.59;;;0.64;58.52
76126;BME280;65174;48.138;21.002;2023-03-12T01:17:53;98664.91;;;0.84;59.09
76126;BME280;65174;48.138;21.002;2023-03-12T01:20:55;98667.16;;;0.70;57.92
76126;BME280;65174;48.138;21.002;2023-03-12T01:23:58;98666.81;;;0.79;58.03
76126;BME280;65174;48.138;21.002;2023-03-12T01:27:00;98676.81;;;0.84;56.38
76126;BME280;65174;48.138;21.002;2023-03-12T01:30:03;98678.75;;;0.77;56.46
76126;BME280;65174;48.138;21.002;2023-03-12T01:33:06;98698.75;;;0.85;56.08
76126;BME280;65174;48.138;21.002;2023-03-12T01:39:17;98705.66;;;1.04;57.48
76126;BME280;65174;48.138;21.002;2023-03-12T01:42:20;98711.56;;;1.05;57.78
76126;BME280;65174;48.138;21.002;2023-03-12T01:49:29;98727.06;;;0.51;61.57
76126;BME280;65174;48.138;21.002;2023-03-12T01:52:35;98729.91;;;0.66;61.62
76126;BME280;65174;48.138;21.002;2023-03-12T01:55:39;98730.50;;;0.73;61.50
76126;BME280;65174;48.138;21.002;2023-03-12T01:58:46;98734.41;;;0.58;61.28
76126;BME280;65174;48.138;21.002;2023-03-12T02:01:50;98741.19;;;0.58;61.00
76126;BME280;65174;48.138;21.002;2023-03-12T02:09:00;98748.28;;;0.48;58.50
76126;BME280;65174;48.138;21.002;2023-03-12T02:12:04;98743.50;;;0.64;54.92
76126;BME280;65174;48.138;21.002;2023-03-12T02:15:07;98747.75;;;0.63;55.89
76126;BME280;65174;48.138;21.002;2023-03-12T02:18:14;98758.84;;;0.61;55.25
76126;BME280;65174;48.138;21.002;2023-03-12T02:21:23;98763.75;;;0.65;55.59
76126;BME280;65174;48.138;21.002;2023-03-12T02:24:34;98762.06;;;0.66;55.38
76126;BME280;65174;48.138;21.002;2023-03-12T02:27:38;98762.38;;;0.57;54.63
76126;BME280;65174;48.138;21.002;2023-03-12T02:30:45;98774.19;;;0.58;56.24
76126;BME280;65174;48.138;21.002;2023-03-12T02:33:48;98770.25;;;0.25;56.76
76126;BME280;65174;48.138;21.002;2023-03-12T02:36:51;98776.09;;;0.51;56.54
76126;BME280;65174;48.138;21.002;2023-03-12T02:40:30;98780.06;;;0.34;56.55
76126;BME280;65174;48.138;21.002;2023-03-12T02:43:35;98776.97;;;0.50;55.82
76126;BME280;65174;48.138;21.002;2023-03-12T02:46:49;98786.25;;;0.51;56.18
76126;BME280;65174;48.138;21.002;2023-03-12T02:49:51;98794.78;;;0.24;57.29
76126;BME280;65174;48.138;21.002;2023-03-12T02:52:53;98796.44;;;0.25;57.74
76126;BME280;65174;48.138;21.002;2023-03-12T02:55:56;98801.25;;;0.33;57.13
76126;BME280;65174;48.138;21.002;2023-03-12T02:58:58;98795.56;;;0.26;56.69
76126;BME280;65174;48.138;21.002;2023-03-12T03:02:04;98804.63;;;0.07;56.65
76126;BME280;65174;48.138;21.002;2023-03-12T03:05:09;98812.34;;;0.30;56.59
76126;BME280;65174;48.138;21.002;2023-03-12T03:08:11;98806.41;;;0.05;57.30
76126;BME280;65174;48.138;21.002;2023-03-12T03:11:15;98818.00;;;0.12;57.29
76126;BME280;65174;48.138;21.002;2023-03-12T03:14:17;98819.09;;;0.30;56.42
76126;BME280;65174;48.138;21.002;2023-03-12T03:17:23;98823.84;;;0.40;56.19
76126;BME280;65174;48.138;21.002;2023-03-12T03:20:26;98829.72;;;0.16;57.52
76126;BME280;65174;48.138;21.002;2023-03-12T03:23:29;98835.88;;;0.34;56.50
76126;BME280;65174;48.138;21.002;2023-03-12T03:26:31;98835.16;;;0.30;57.45
76126;BME280;65174;48.138;21.002;2023-03-12T03:29:33;98835.28;;;0.27;57.45
76126;BME280;65174;48.138;21.002;2023-03-12T03:32:37;98832.22;;;-0.10;58.65
76126;BME280;65174;48.138;21.002;2023-03-12T03:35:40;98830.38;;;-0.05;58.06
76126;BME280;65174;48.138;21.002;2023-03-12T03:38:43;98835.00;;;-0.18;57.91
76126;BME280;65174;48.138;21.002;2023-03-12T03:41:50;98838.53;;;0.05;58.03
76126;BME280;65174;48.138;21.002;2023-03-12T03:44:57;98841.41;;;0.20;57.38
76126;BME280;65174;48.138;21.002;2023-03-12T03:47:59;98850.06;;;0.15;57.07
76126;BME280;65174;48.138;21.002;2023-03-12T03:51:04;98852.66;;;0.38;55.94
76126;BME280;65174;48.138;21.002;2023-03-12T03:54:10;98871.31;;;0.37;56.21
76126;BME280;65174;48.138;21.002;2023-03-12T03:57:13;98869.50;;;0.14;57.94
76126;BME280;65174;48.138;21.002;2023-03-12T04:00:16;98877.75;;;0.21;57.81
76126;BME280;65174;48.138;21.002;2023-03-12T04:03:22;98875.75;;;0.04;59.44
76126;BME280;65174;48.138;21.002;2023-03-12T04:06:24;98884.63;;;0.17;57.99
76126;BME280;65174;48.138;21.002;2023-03-12T04:09:26;98884.22;;;0.03;59.08
76126;BME280;65174;48.138;21.002;2023-03-12T04:12:29;98897.81;;;0.00;59.00
76126;BME280;65174;48.138;21.002;2023-03-12T04:15:31;98907.94;;;0.00;59.75
76126;BME280;65174;48.138;21.002;2023-03-12T04:18:33;98912.09;;;0.03;58.84
76126;BME280;65174;48.138;21.002;2023-03-12T04:21:37;98917.13;;;0.05;57.71
76126;BME280;65174;48.138;21.002;2023-03-12T04:24:41;98918.69;;;0.09;57.38
76126;BME280;65174;48.138;21.002;2023-03-12T04:27:43;98920.13;;;0.17;55.70
76126;BME280;65174;48.138;21.002;2023-03-12T04:30:58;98919.66;;;0.32;56.49
76126;BME280;65174;48.138;21.002;2023-03-12T04:34:06;98921.69;;;0.21;55.80
76126;BME280;65174;48.138;21.002;2023-03-12T04:37:08;98923.22;;;0.53;55.29
76126;BME280;65174;48.138;21.002;2023-03-12T04:40:16;98932.38;;;0.57;55.82
76126;BME280;65174;48.138;21.002;2023-03-12T04:43:20;98942.50;;;0.58;55.73
76126;BME280;65174;48.138;21.002;2023-03-12T04:46:23;98949.81;;;0.67;55.95
76126;BME280;65174;48.138;21.002;2023-03-12T04:49:25;98956.63;;;0.67;57.96
76126;BME280;65174;48.138;21.002;2023-03-12T04:52:29;98961.13;;;0.57;59.22
76126;BME280;65174;48.138;21.002;2023-03-12T04:55:31;98958.78;;;0.51;59.17
76126;BME280;65174;48.138;21.002;2023-03-12T04:58:33;98963.38;;;0.40;60.76
76126;BME280;65174;48.138;21.002;2023-03-12T05:01:37;98970.84;;;0.45;58.70
76126;BME280;65174;48.138;21.002;2023-03-12T05:04:46;98979.22;;;0.47;59.07
76126;BME280;65174;48.138;21.002;2023-03-12T05:07:48;98985.34;;;0.41;58.89
76126;BME280;65174;48.138;21.002;2023-03-12T05:10:51;98986.63;;;0.27;60.14
76126;BME280;65174;48.138;21.002;2023-03-12T05:13:54;98989.63;;;0.12;60.64
76126;BME280;65174;48.138;21.002;2023-03-12T05:16:57;98995.19;;;-0.05;61.18
76126;BME280;65174;48.138;21.002;2023-03-12T05:19:59;98999.22;;;0.00;60.19
76126;BME280;65174;48.138;21.002;2023-03-12T05:23:02;99012.66;;;0.04;60.76
76126;BME280;65174;48.138;21.002;2023-03-12T05:26:05;99017.63;;;0.07;60.71
76126;BME280;65174;48.138;21.002;2023-03-12T05:29:08;99029.09;;;0.20;58.01
76126;BME280;65174;48.138;21.002;2023-03-12T05:32:11;99027.69;;;0.39;58.31
76126;BME280;65174;48.138;21.002;2023-03-12T05:35:14;99030.22;;;0.67;56.49
76126;BME280;65174;48.138;21.002;2023-03-12T05:38:17;99038.25;;;0.81;57.13
76126;BME280;65174;48.138;21.002;2023-03-12T05:41:25;99041.75;;;1.03;53.61
76126;BME280;65174;48.138;21.002;2023-03-12T05:44:32;99047.97;;;1.21;53.85
76126;BME280;65174;48.138;21.002;2023-03-12T05:47:36;99054.78;;;1.19;55.58
76126;BME280;65174;48.138;21.002;2023-03-12T05:50:39;99052.91;;;1.24;54.41
76126;BME280;65174;48.138;21.002;2023-03-12T05:53:41;99053.97;;;1.18;56.08
76126;BME280;65174;48.138;21.002;2023-03-12T05:56:45;99064.84;;;1.22;54.63
76126;BME280;65174;48.138;21.002;2023-03-12T05:59:48;99065.06;;;1.40;56.35
76126;BME280;65174;48.138;21.002;2023-03-12T06:02:50;99064.69;;;1.52;54.37
76126;BME280;65174;48.138;21.002;2023-03-12T06:05:53;99075.78;;;1.75;53.12
76126;BME280;65174;48.138;21.002;2023-03-12T06:08:58;99076.09;;;1.90;52.91
76126;BME280;65174;48.138;21.002;2023-03-12T06:12:00;99085.75;;;2.04;52.00
76126;BME280;65174;48.138;21.002;2023-03-12T06:15:04;99090.47;;;2.14;50.85
76126;BME280;65174;48.138;21.002;2023-03-12T06:18:06;99095.88;;;2.28;50.86
76126;BME280;65174;48.138;21.002;2023-03-12T06:21:16;99105.97;;;2.31;51.16
76126;BME280;65174;48.138;21.002;2023-03-12T06:24:19;99115.47;;;2.50;51.55
76126;BME280;65174;48.138;21.002;2023-03-12T06:27:24;99117.53;;;2.63;50.98
76126;BME280;65174;48.138;21.002;2023-03-12T06:30:28;99128.47;;;2.65;51.26
76126;BME280;65174;48.138;21.002;2023-03-12T06:33:30;99112.25;;;2.68;50.27
76126;BME280;65174;48.138;21.002;2023-03-12T06:36:33;99124.75;;;2.74;50.52
76126;BME280;65174;48.138;21.002;2023-03-12T06:39:44;99129.84;;;2.74;50.92
76126;BME280;65174;48.138;21.002;2023-03-12T06:42:46;99124.03;;;2.70;51.47
76126;BME280;65174;48.138;21.002;2023-03-12T06:45:48;99124.00;;;2.72;52.00
76126;BME280;65174;48.138;21.002;2023-03-12T06:48:50;99136.25;;;2.84;52.24
76126;BME280;65174;48.138;21.002;2023-03-12T06:51:52;99140.28;;;2.89;52.53
76126;BME280;65174;48.138;21.002;2023-03-12T06:54:55;99151.91;;;2.96;51.41
76126;BME280;65174;48.138;21.002;2023-03-12T06:57:57;99154.13;;;3.05;52.29
76126;BME280;65174;48.138;21.002;2023-03-12T07:00:59;99154.81;;;3.09;52.97
76126;BME280;65174;48.138;21.002;2023-03-12T07:04:01;99166.06;;;3.25;53.61
76126;BME280;65174;48.138;21.002;2023-03-12T07:07:03;99163.66;;;3.22;53.61
76126;BME280;65174;48.138;21.002;2023-03-12T07:10:06;99172.13;;;3.44;53.14
76126;BME280;65174;48.138;21.002;2023-03-12T07:13:09;99167.38;;;3.57;52.38
76126;BME280;65174;48.138;21.002;2023-03-12T07:16:11;99167.69;;;3.69;52.91
76126;BME280;65174;48.138;21.002;2023-03-12T07:19:14;99176.25;;;3.68;50.04
76126;BME280;65174;48.138;21.002;2023-03-12T07:22:17;99173.72;;;3.88;50.45
76126;BME280;65174;48.138;21.002;2023-03-12T07:25:20;99179.03;;;4.04;48.95
76126;BME280;65174;48.138;21.002;2023-03-12T07:28:22;99182.28;;;4.08;48.91
76126;BME280;65174;48.138;21.002;2023-03-12T07:31:25;99183.41;;;4.21;49.66
76126;BME280;65174;48.138;21.002;2023-03-12T07:34:27;99192.84;;;4.39;49.01
76126;BME280;65174;48.138;21.002;2023-03-12T07:37:29;99198.72;;;4.41;49.13
76126;BME280;65174;48.138;21.002;2023-03-12T07:40:32;99198.94;;;4.55;48.66
76126;BME280;65174;48.138;21.002;2023-03-12T07:43:34;99196.91;;;4.43;48.29
76126;BME280;65174;48.138;21.002;2023-03-12T07:46:36;99204.19;;;4.52;49.08
76126;BME280;65174;48.138;21.002;2023-03-12T07:49:39;99204.63;;;4.61;47.33
76126;BME280;65174;48.138;21.002;2023-03-12T07:52:43;99199.28;;;4.47;46.93
76126;BME280;65174;48.138;21.002;2023-03-12T07:55:46;99206.22;;;4.64;46.70
76126;BME280;65174;48.138;21.002;2023-03-12T07:58:49;99208.38;;;4.73;46.82
76126;BME280;65174;48.138;21.002;2023-03-12T08:01:52;99200.84;;;4.89;47.71
76126;BME280;65174;48.138;21.002;2023-03-12T08:04:55;99199.03;;;4.72;47.13
76126;BME280;65174;48.138;21.002;2023-03-12T08:07:57;99209.19;;;4.73;47.98
76126;BME280;65174;48.138;21.002;2023-03-12T08:11:02;99211.19;;;4.67;48.70
76126;BME280;65174;48.138;21.002;2023-03-12T08:14:04;99204.03;;;4.75;47.77
76126;BME280;65174;48.138;21.002;2023-03-12T08:17:06;99204.50;;;4.64;49.02
76126;BME280;65174;48.138;21.002;2023-03-12T08:20:09;99208.94;;;4.98;45.95
76126;BME280;65174;48.138;21.002;2023-03-12T08:23:12;99210.72;;;4.96;45.76
76126;BME280;65174;48.138;21.002;2023-03-12T08:26:14;99218.59;;;5.29;45.81
76126;BME280;65174;48.138;21.002;2023-03-12T08:29:16;99218.09;;;5.39;44.41
76126;BME280;65174;48.138;21.002;2023-03-12T08:32:18;99223.53;;;5.50;45.11
76126;BME280;65174;48.138;21.002;2023-03-12T08:35:21;99220.00;;;5.53;44.80
76126;BME280;65174;48.138;21.002;2023-03-12T08:38:23;99228.03;;;5.45;44.97
76126;BME280;65174;48.138;21.002;2023-03-12T08:41:25;99229.22;;;5.74;45.18
76126;BME280;65174;48.138;21.002;2023-03-12T08:44:27;99230.72;;;5.78;45.09
76126;BME280;65174;48.138;21.002;2023-03-12T08:47:29;99240.66;;;5.86;43.28
76126;BME280;65174;48.138;21.002;2023-03-12T08:54:05;99227.75;;;5.87;44.71
76126;BME280;65174;48.138;21.002;2023-03-12T08:57:07;99241.13;;;6.11;43.52
76126;BME280;65174;48.138;21.002;2023-03-12T09:00:09;99241.47;;;5.86;43.97
76126;BME280;65174;48.138;21.002;2023-03-12T09:03:16;99238.91;;;6.03;43.48
76126;BME280;65174;48.138;21.002;2023-03-12T09:06:18;99246.22;;;6.11;42.92
76126;BME280;65174;48.138;21.002;2023-03-12T09:09:21;99242.44;;;6.35;44.05
76126;BME280;65174;48.138;21.002;2023-03-12T09:12:23;99239.75;;;6.21;43.14
76126;BME280;65174;48.138;21.002;2023-03-12T09:15:26;99236.53;;;6.34;42.44
76126;BME280;65174;48.138;21.002;2023-03-12T09:18:28;99244.56;;;6.44;42.33
76126;BME280;65174;48.138;21.002;2023-03-12T09:21:31;99239.97;;;6.16;42.80
76126;BME280;65174;48.138;21.002;2023-03-12T09:24:34;99252.25;;;6.44;41.86
76126;BME280;65174;48.138;21.002;2023-03-12T09:27:42;99248.41;;;6.68;41.19
76126;BME280;65174;48.138;21.002;2023-03-12T09:30:45;99241.91;;;6.46;39.25
76126;BME280;65174;48.138;21.002;2023-03-12T09:33:47;99241.31;;;6.58;40.62
76126;BME280;65174;48.138;21.002;2023-03-12T09:36:50;99241.16;;;6.43;41.45
76126;BME280;65174;48.138;21.002;2023-03-12T09:39:53;99233.44;;;6.61;41.98
76126;BME280;65174;48.138;21.002;2023-03-12T09:42:58;99243.53;;;6.96;39.81
76126;BME280;65174;48.138;21.002;2023-03-12T09:46:01;99243.34;;;6.84;38.24
76126;BME280;65174;48.138;21.002;2023-03-12T09:49:12;99234.50;;;6.57;38.75
76126;BME280;65174;48.138;21.002;2023-03-12T09:52:24;99236.97;;;6.43;39.02
76126;BME280;65174;48.138;21.002;2023-03-12T09:55:36;99241.13;;;6.61;39.52
76126;BME280;65174;48.138;21.002;2023-03-12T09:58:39;99235.75;;;6.82;38.33
76126;BME280;65174;48.138;21.002;2023-03-12T10:01:46;99232.59;;;6.77;38.54
76126;BME280;65174;48.138;21.002;2023-03-12T10:04:57;99236.41;;;6.86;40.54
76126;BME280;65174;48.138;21.002;2023-03-12T10:08:21;99239.31;;;6.95;39.49
76126;BME280;65174;48.138;21.002;2023-03-12T10:25:50;99230.28;;;6.88;37.52
76126;BME280;65174;48.138;21.002;2023-03-12T10:29:05;99234.47;;;7.38;37.64
76126;BME280;65174;48.138;21.002;2023-03-12T10:32:45;99227.44;;;7.26;39.13
76126;BME280;65174;48.138;21.002;2023-03-12T10:35:49;99233.63;;;7.53;36.85
76126;BME280;65174;48.138;21.002;2023-03-12T10:38:53;99227.31;;;7.58;36.78
76126;BME280;65174;48.138;21.002;2023-03-12T10:41:58;99218.56;;;7.47;36.58
76126;BME280;65174;48.138;21.002;2023-03-12T10:48:24;99218.72;;;7.75;37.05
76126;BME280;65174;48.138;21.002;2023-03-12T10:51:26;99214.72;;;7.69;36.71
76126;BME280;65174;48.138;21.002;2023-03-12T10:54:34;99220.59;;;7.87;38.69
76126;BME280;65174;48.138;21.002;2023-03-12T10:57:40;99207.81;;;8.15;37.13
76126;BME280;65174;48.138;21.002;2023-03-12T11:00:54;99201.72;;;8.32;39.58
76126;BME280;65174;48.138;21.002;2023-03-12T11:04:27;99211.78;;;8.50;37.98
76126;BME280;65174;48.138;21.002;2023-03-12T11:07:33;99206.16;;;8.44;36.37
76126;BME280;65174;48.138;21.002;2023-03-12T11:10:40;99201.75;;;8.46;37.42
76126;BME280;65174;48.138;21.002;2023-03-12T11:13:44;99203.03;;;8.67;38.08
76126;BME280;65174;48.138;21.002;2023-03-12T11:16:46;99202.13;;;8.54;37.33
76126;BME280;65174;48.138;21.002;2023-03-12T11:19:49;99205.31;;;8.57;36.55
76126;BME280;65174;48.138;21.002;2023-03-12T11:22:51;99202.00;;;8.69;39.89
76126;BME280;65174;48.138;21.002;2023-03-12T11:25:57;99202.66;;;8.45;39.40
76126;BME280;65174;48.138;21.002;2023-03-12T11:29:04;99203.38;;;8.03;38.69
76126;BME280;65174;48.138;21.002;2023-03-12T11:32:15;99198.66;;;7.66;38.18
76126;BME280;65174;48.138;21.002;2023-03-12T11:35:28;99201.16;;;7.67;39.35
76126;BME280;65174;48.138;21.002;2023-03-12T11:38:38;99197.88;;;8.39;41.40
76126;BME280;65174;48.138;21.002;2023-03-12T11:52:16;99188.31;;;8.97;39.15
76126;BME280;65174;48.138;21.002;2023-03-12T12:03:07;99193.75;;;8.78;39.08
76126;BME280;65174;48.138;21.002;2023-03-12T12:09:27;99192.66;;;8.82;39.88
76126;BME280;65174;48.138;21.002;2023-03-12T12:19:38;99205.03;;;9.04;38.83
76126;BME280;65174;48.138;21.002;2023-03-12T12:26:12;99203.13;;;8.94;38.50
76126;BME280;65174;48.138;21.002;2023-03-12T12:32:48;99200.91;;;8.88;40.27
76126;BME280;65174;48.138;21.002;2023-03-12T12:35:56;99210.31;;;9.29;37.13
76126;BME280;65174;48.138;21.002;2023-03-12T12:39:04;99218.72;;;9.19;38.38
76126;BME280;65174;48.138;21.002;2023-03-12T12:42:15;99212.50;;;8.66;40.71
76126;BME280;65174;48.138;21.002;2023-03-12T12:45:21;99207.16;;;8.98;39.28
76126;BME280;65174;48.138;21.002;2023-03-12T12:48:30;99213.50;;;8.78;39.92
76126;BME280;65174;48.138;21.002;2023-03-12T12:51:45;99214.41;;;8.91;39.03
76126;BME280;65174;48.138;21.002;2023-03-12T12:58:24;99211.56;;;8.53;39.08
76126;BME280;65174;48.138;21.002;2023-03-12T13:01:29;99215.44;;;8.74;40.62
76126;BME280;65174;48.138;21.002;2023-03-12T13:04:35;99207.19;;;8.84;40.13
76126;BME280;65174;48.138;21.002;2023-03-12T13:07:38;99220.94;;;8.68;39.69
76126;BME280;65174;48.138;21.002;2023-03-12T13:10:41;99209.38;;;8.61;40.06
76126;BME280;65174;48.138;21.002;2023-03-12T13:17:58;99214.06;;;8.69;38.27
76126;BME280;65174;48.138;21.002;2023-03-12T13:21:15;99207.34;;;8.80;38.43
76126;BME280;65174;48.138;21.002;2023-03-12T13:24:29;99207.34;;;8.80;38.13
76126;BME280;65174;48.138;21.002;2023-03-12T13:27:37;99216.44;;;8.72;37.51
76126;BME280;65174;48.138;21.002;2023-03-12T13:30:49;99218.25;;;8.84;38.14
76126;BME280;65174;48.138;21.002;2023-03-12T13:33:59;99211.03;;;8.62;38.27
76126;BME280;65174;48.138;21.002;2023-03-12T13:37:46;99209.53;;;8.44;37.55
76126;BME280;65174;48.138;21.002;2023-03-12T13:40:58;99216.34;;;8.59;37.33
76126;BME280;65174;48.138;21.002;2023-03-12T13:47:33;99215.69;;;8.70;37.70
76126;BME280;65174;48.138;21.002;2023-03-12T13:50:52;99209.66;;;8.71;36.74
76126;BME280;65174;48.138;21.002;2023-03-12T13:53:59;99213.69;;;8.75;36.14
76126;BME280;65174;48.138;21.002;2023-03-12T13:57:10;99213.41;;;8.51;37.01
76126;BME280;65174;48.138;21.002;2023-03-12T14:00:31;99218.06;;;8.45;35.94
76126;BME280;65174;48.138;21.002;2023-03-12T14:03:44;99214.34;;;8.50;36.92
76126;BME280;65174;48.138;21.002;2023-03-12T14:10:30;99214.13;;;8.39;36.31
76126;BME280;65174;48.138;21.002;2023-03-12T14:16:44;99216.44;;;8.44;35.22
76126;BME280;65174;48.138;21.002;2023-03-12T14:19:55;99214.50;;;8.47;35.46
76126;BME280;65174;48.138;21.002;2023-03-12T14:23:05;99214.75;;;8.29;36.08
76126;BME280;65174;48.138;21.002;2023-03-12T14:26:26;99218.91;;;8.16;36.11
76126;BME280;65174;48.138;21.002;2023-03-12T14:29:41;99223.09;;;8.02;36.55
76126;BME280;65174;48.138;21.002;2023-03-12T14:32:45;99210.72;;;8.09;36.34
76126;BME280;65174;48.138;21.002;2023-03-12T14:35:56;99216.97;;;8.05;36.47
76126;BME280;65174;48.138;21.002;2023-03-12T14:39:17;99220.91;;;8.11;36.41
76126;BME280;65174;48.138;21.002;2023-03-12T14:42:33;99227.09;;;7.92;36.45
76126;BME280;65174;48.138;21.002;2023-03-12T14:45:39;99234.03;;;7.76;36.38
76126;BME280;65174;48.138;21.002;2023-03-12T14:48:41;99230.22;;;7.68;37.69
76126;BME280;65174;48.138;21.002;2023-03-12T14:51:44;99237.63;;;7.88;36.66
76126;BME280;65174;48.138;21.002;2023-03-12T14:58:05;99232.47;;;7.43;37.53
76126;BME280;65174;48.138;21.002;2023-03-12T15:01:12;99234.88;;;7.46;37.53
76126;BME280;65174;48.138;21.002;2023-03-12T15:04:21;99234.72;;;7.49;37.98
76126;BME280;65174;48.138;21.002;2023-03-12T15:07:32;99229.47;;;7.66;37.11
76126;BME280;65174;48.138;21.002;2023-03-12T15:10:36;99233.13;;;7.62;37.40
76126;BME280;65174;48.138;21.002;2023-03-12T15:13:41;99239.25;;;7.75;37.72
76126;BME280;65174;48.138;21.002;2023-03-12T15:16:44;99239.84;;;7.64;36.82
76126;BME280;65174;48.138;21.002;2023-03-12T15:19:47;99226.16;;;7.64;37.11
76126;BME280;65174;48.138;21.002;2023-03-12T15:22:52;99237.19;;;7.66;37.25
76126;BME280;65174;48.138;21.002;2023-03-12T15:29:26;99234.47;;;7.38;38.27
76126;BME280;65174;48.138;21.002;2023-03-12T15:32:29;99236.94;;;7.23;38.48
76126;BME280;65174;48.138;21.002;2023-03-12T15:35:34;99232.41;;;7.29;38.20
76126;BME280;65174;48.138;21.002;2023-03-12T15:38:47;99234.44;;;7.06;38.47
76126;BME280;65174;48.138;21.002;2023-03-12T15:41:51;99232.44;;;6.96;38.70
76126;BME280;65174;48.138;21.002;2023-03-12T15:45:00;99243.38;;;6.99;37.96
76126;BME280;65174;48.138;21.002;2023-03-12T15:54:31;99246.56;;;6.87;37.99
76126;BME280;65174;48.138;21.002;2023-03-12T15:57:47;99251.59;;;6.73;38.46
76126;BME280;65174;48.138;21.002;2023-03-12T16:00:52;99257.97;;;6.82;38.58
76126;BME280;65174;48.138;21.002;2023-03-12T16:03:54;99255.22;;;6.69;38.78
76126;BME280;65174;48.138;21.002;2023-03-12T16:06:56;99257.66;;;6.55;39.70
76126;BME280;65174;48.138;21.002;2023-03-12T16:09:59;99259.47;;;6.70;39.01
76126;BME280;65174;48.138;21.002;2023-03-12T16:13:02;99271.50;;;6.68;39.32
76126;BME280;65174;48.138;21.002;2023-03-12T16:16:06;99271.91;;;6.61;39.57
76126;BME280;65174;48.138;21.002;2023-03-12T16:19:12;99273.09;;;6.54;39.91
76126;BME280;65174;48.138;21.002;2023-03-12T16:22:15;99278.31;;;6.52;39.33
76126;BME280;65174;48.138;21.002;2023-03-12T16:25:19;99278.94;;;6.40;39.78
76126;BME280;65174;48.138;21.002;2023-03-12T16:28:22;99286.69;;;6.38;40.06
76126;BME280;65174;48.138;21.002;2023-03-12T16:31:24;99285.03;;;6.20;40.07
76126;BME280;65174;48.138;21.002;2023-03-12T16:34:27;99281.94;;;5.97;40.88
76126;BME280;65174;48.138;21.002;2023-03-12T16:37:29;99288.84;;;5.95;40.18
76126;BME280;65174;48.138;21.002;2023-03-12T16:40:36;99297.13;;;5.81;40.81
76126;BME280;65174;48.138;21.002;2023-03-12T16:43:43;99301.72;;;5.75;40.45
76126;BME280;65174;48.138;21.002;2023-03-12T16:46:47;99309.69;;;5.87;39.86
76126;BME280;65174;48.138;21.002;2023-03-12T16:49:49;99310.81;;;5.63;40.25
76126;BME280;65174;48.138;21.002;2023-03-12T16:52:52;99316.31;;;5.73;40.06
76126;BME280;65174;48.138;21.002;2023-03-12T16:55:59;99317.84;;;5.58;40.61
76126;BME280;65174;48.138;21.002;2023-03-12T16:59:04;99327.31;;;5.37;41.44
76126;BME280;65174;48.138;21.002;2023-03-12T17:02:14;99330.63;;;5.21;42.33
76126;BME280;65174;48.138;21.002;2023-03-12T17:05:17;99335.28;;;5.31;42.02
76126;BME280;65174;48.138;21.002;2023-03-12T17:08:19;99338.56;;;5.15;41.98
76126;BME280;65174;48.138;21.002;2023-03-12T17:11:25;99336.00;;;5.15;42.25
76126;BME280;65174;48.138;21.002;2023-03-12T17:14:29;99337.25;;;5.06;41.91
76126;BME280;65174;48.138;21.002;2023-03-12T17:17:32;99346.63;;;5.06;42.83
76126;BME280;65174;48.138;21.002;2023-03-12T17:20:34;99354.19;;;4.89;43.18
76126;BME280;65174;48.138;21.002;2023-03-12T17:23:38;99353.88;;;4.96;42.92
76126;BME280;65174;48.138;21.002;2023-03-12T17:26:42;99357.97;;;4.80;43.81
76126;BME280;65174;48.138;21.002;2023-03-12T17:29:46;99367.28;;;4.81;44.18
76126;BME280;65174;48.138;21.002;2023-03-12T17:32:50;99365.59;;;4.81;44.08
76126;BME280;65174;48.138;21.002;2023-03-12T17:36:01;99367.09;;;4.65;44.16
76126;BME280;65174;48.138;21.002;2023-03-12T17:39:04;99368.94;;;4.62;43.16
76126;BME280;65174;48.138;21.002;2023-03-12T17:42:06;99371.31;;;4.66;43.67
76126;BME280;65174;48.138;21.002;2023-03-12T17:45:09;99365.13;;;4.52;43.89
76126;BME280;65174;48.138;21.002;2023-03-12T17:48:12;99369.41;;;4.30;44.26
76126;BME280;65174;48.138;21.002;2023-03-12T17:51:15;99372.63;;;4.35;45.04
76126;BME280;65174;48.138;21.002;2023-03-12T17:54:18;99371.09;;;4.31;45.34
76126;BME280;65174;48.138;21.002;2023-03-12T17:57:20;99372.69;;;3.90;46.67
76126;BME280;65174;48.138;21.002;2023-03-12T18:00:23;99380.94;;;3.96;46.05